createdAt,value
2019-03-04T00:00:21.770Z,850.18
2019-03-04T00:01:21.644Z,850.15
2019-03-04T00:02:21.505Z,850.17
2019-03-04T00:03:21.374Z,850.17
2019-03-04T00:04:21.244Z,850.13
2019-03-04T00:05:21.117Z,850.13
2019-03-04T00:06:20.980Z,850.12
2019-03-04T00:07:20.849Z,850.15
2019-03-04T00:08:20.720Z,850.15
2019-03-04T00:09:20.591Z,850.17
2019-03-04T00:10:20.457Z,850.22
2019-03-04T00:11:20.328Z,850.20
2019-03-04T00:12:20.194Z,850.22
2019-03-04T00:13:20.064Z,850.20
2019-03-04T00:14:19.935Z,850.21
2019-03-04T00:15:19.803Z,850.17
2019-03-04T00:16:19.715Z,850.18
2019-03-04T00:17:19.539Z,850.13
2019-03-04T00:18:19.407Z,850.12
2019-03-04T00:19:19.280Z,850.09
2019-03-04T00:20:19.152Z,850.13
2019-03-04T00:21:19.017Z,850.12
2019-03-04T00:22:18.885Z,850.12
2019-03-04T00:23:18.754Z,850.15
2019-03-04T00:24:18.622Z,850.15
2019-03-04T00:25:18.489Z,850.13
2019-03-04T00:26:18.359Z,850.15
2019-03-04T00:27:18.230Z,850.18
2019-03-04T00:28:18.098Z,850.13
2019-03-04T00:29:17.971Z,850.12
2019-03-04T00:30:17.834Z,850.13
2019-03-04T00:31:17.702Z,850.12
2019-03-04T00:32:17.574Z,850.11
2019-03-04T00:33:17.443Z,850.10
2019-03-04T00:34:17.311Z,850.14
2019-03-04T00:35:17.180Z,850.16
2019-03-04T00:36:17.047Z,850.14
2019-03-04T00:37:16.917Z,850.16
2019-03-04T00:38:16.786Z,850.13
2019-03-04T00:39:16.655Z,850.16
2019-03-04T00:40:16.524Z,850.12
2019-03-04T00:41:16.393Z,850.10
2019-03-04T00:42:16.261Z,850.10
2019-03-04T00:43:16.133Z,850.13
2019-03-04T00:44:16.002Z,850.10
2019-03-04T00:45:15.868Z,850.03
2019-03-04T00:46:15.738Z,850.04
2019-03-04T00:47:15.607Z,850.03
2019-03-04T00:48:15.475Z,850.06
2019-03-04T00:49:15.348Z,850.10
2019-03-04T00:50:15.213Z,850.07
2019-03-04T00:51:15.083Z,850.07
2019-03-04T00:52:14.951Z,850.07
2019-03-04T00:53:14.818Z,850.12
2019-03-04T00:54:14.691Z,850.06
2019-03-04T00:55:14.556Z,850.04
2019-03-04T00:56:14.427Z,850.04
2019-03-04T00:57:14.297Z,850.04
2019-03-04T00:58:15.011Z,849.99
2019-03-04T00:59:14.050Z,850.01
2019-03-04T01:00:13.900Z,849.96
2019-03-04T01:01:13.770Z,849.96
2019-03-04T01:02:13.641Z,849.99
2019-03-04T01:03:13.507Z,849.99
2019-03-04T01:04:13.374Z,849.94
2019-03-04T01:05:13.244Z,849.88
2019-03-04T01:06:13.114Z,849.89
2019-03-04T01:07:12.981Z,849.84
2019-03-04T01:08:12.851Z,849.77
2019-03-04T01:09:12.719Z,849.78
2019-03-04T01:10:12.590Z,849.77
2019-03-04T01:11:12.457Z,849.74
2019-03-04T01:12:12.325Z,849.70
2019-03-04T01:13:12.197Z,849.66
2019-03-04T01:14:12.064Z,849.66
2019-03-04T01:15:11.931Z,849.66
2019-03-04T01:16:11.800Z,849.59
2019-03-04T01:17:11.672Z,849.62
2019-03-04T01:18:11.537Z,849.59
2019-03-04T01:19:11.412Z,849.60
2019-03-04T01:20:11.277Z,849.59
2019-03-04T01:21:11.149Z,849.55
2019-03-04T01:22:11.014Z,849.57
2019-03-04T01:23:10.882Z,849.56
2019-03-04T01:24:10.754Z,849.58
2019-03-04T01:25:10.621Z,849.57
2019-03-04T01:26:10.489Z,849.56
2019-03-04T01:27:11.021Z,849.59
2019-03-04T01:28:10.227Z,849.58
2019-03-04T01:29:10.095Z,849.61
2019-03-04T01:30:09.965Z,849.61
2019-03-04T01:31:09.836Z,849.57
2019-03-04T01:32:09.709Z,849.57
2019-03-04T01:33:09.571Z,849.58
2019-03-04T01:34:09.445Z,849.59
2019-03-04T01:35:09.311Z,849.58
2019-03-04T01:36:09.181Z,849.60
2019-03-04T01:37:09.049Z,849.54
2019-03-04T01:38:08.919Z,849.55
2019-03-04T01:39:08.785Z,849.54
2019-03-04T01:40:08.654Z,849.54
2019-03-04T01:41:08.527Z,849.54
2019-03-04T01:42:08.393Z,849.56
2019-03-04T01:43:08.262Z,849.55
2019-03-04T01:44:08.131Z,849.53
2019-03-04T01:45:07.999Z,849.51
2019-03-04T01:46:07.868Z,849.47
2019-03-04T01:47:07.737Z,849.51
2019-03-04T01:48:07.604Z,849.53
2019-03-04T01:49:07.476Z,849.50
2019-03-04T01:50:07.343Z,849.42
2019-03-04T01:51:07.211Z,849.44
2019-03-04T01:52:07.083Z,849.44
2019-03-04T01:53:06.951Z,849.42
2019-03-04T01:54:06.822Z,849.38
2019-03-04T01:55:06.688Z,849.38
2019-03-04T01:56:07.030Z,849.34
2019-03-04T01:57:06.426Z,849.25
2019-03-04T01:58:06.293Z,849.28
2019-03-04T01:59:06.162Z,849.30
2019-03-04T02:00:06.036Z,849.28
2019-03-04T02:01:05.900Z,849.19
2019-03-04T02:02:05.771Z,849.14
2019-03-04T02:03:05.639Z,849.12
2019-03-04T02:04:05.506Z,849.05
2019-03-04T02:05:05.421Z,849.00
2019-03-04T02:06:05.246Z,848.99
2019-03-04T02:07:05.117Z,848.99
2019-03-04T02:08:04.994Z,848.99
2019-03-04T02:09:04.858Z,848.96
2019-03-04T02:10:04.722Z,848.90
2019-03-04T02:11:04.591Z,848.90
2019-03-04T02:12:04.458Z,848.88
2019-03-04T02:13:04.326Z,848.85
2019-03-04T02:14:04.195Z,848.85
2019-03-04T02:15:04.065Z,848.84
2019-03-04T02:16:03.933Z,848.84
2019-03-04T02:17:03.802Z,848.76
2019-03-04T02:18:03.675Z,848.66
2019-03-04T02:19:03.543Z,848.60
2019-03-04T02:20:03.409Z,848.60
2019-03-04T02:21:03.279Z,848.62
2019-03-04T02:22:03.147Z,848.61
2019-03-04T02:23:03.014Z,848.62
2019-03-04T02:24:02.885Z,848.58
2019-03-04T02:25:03.022Z,848.58
2019-03-04T02:26:02.621Z,848.63
2019-03-04T02:27:02.491Z,848.59
2019-03-04T02:28:02.360Z,848.62
2019-03-04T02:29:02.233Z,848.58
2019-03-04T02:30:02.105Z,848.61
2019-03-04T02:31:01.968Z,848.56
2019-03-04T02:32:01.843Z,848.56
2019-03-04T02:33:01.705Z,848.52
2019-03-04T02:34:01.580Z,848.49
2019-03-04T02:35:01.448Z,848.50
2019-03-04T02:36:01.318Z,848.51
2019-03-04T02:37:01.183Z,848.51
2019-03-04T02:38:01.049Z,848.47
2019-03-04T02:39:00.923Z,848.42
2019-03-04T02:40:00.802Z,848.43
2019-03-04T02:41:00.660Z,848.47
2019-03-04T02:42:00.527Z,848.46
2019-03-04T02:43:00.394Z,848.45
2019-03-04T02:44:00.263Z,848.41
2019-03-04T02:45:00.383Z,848.44
2019-03-04T02:46:00.000Z,848.43
2019-03-04T02:46:59.869Z,848.38
2019-03-04T02:47:59.741Z,848.35
2019-03-04T02:48:59.610Z,848.35
2019-03-04T02:49:59.488Z,848.33
2019-03-04T02:50:59.347Z,848.33
2019-03-04T02:51:59.215Z,848.30
2019-03-04T02:52:59.110Z,848.33
2019-03-04T02:53:59.039Z,848.35
2019-03-04T02:54:58.821Z,848.37
2019-03-04T02:55:58.690Z,848.31
2019-03-04T02:56:58.560Z,848.22
2019-03-04T02:57:58.430Z,848.12
2019-03-04T02:58:58.299Z,848.13
2019-03-04T02:59:58.171Z,848.10
2019-03-04T03:00:58.035Z,848.01
2019-03-04T03:01:57.901Z,847.93
2019-03-04T03:02:57.769Z,847.87
2019-03-04T03:03:57.642Z,847.87
2019-03-04T03:04:57.509Z,847.83
2019-03-04T03:05:57.378Z,847.80
2019-03-04T03:06:57.248Z,847.76
2019-03-04T03:07:57.128Z,847.76
2019-03-04T03:08:56.990Z,847.77
2019-03-04T03:09:56.852Z,847.85
2019-03-04T03:10:56.727Z,847.83
2019-03-04T03:11:56.591Z,847.81
2019-03-04T03:12:56.459Z,847.81
2019-03-04T03:13:56.330Z,847.77
2019-03-04T03:14:56.205Z,847.72
2019-03-04T03:15:56.068Z,847.68
2019-03-04T03:16:55.936Z,847.61
2019-03-04T03:17:55.804Z,847.64
2019-03-04T03:18:55.673Z,847.68
2019-03-04T03:19:55.542Z,847.71
2019-03-04T03:20:55.420Z,847.71
2019-03-04T03:21:55.280Z,847.71
2019-03-04T03:22:55.146Z,847.68
2019-03-04T03:23:55.015Z,847.68
2019-03-04T03:24:54.883Z,847.68
2019-03-04T03:25:54.752Z,847.69
2019-03-04T03:26:54.625Z,847.74
2019-03-04T03:27:54.489Z,847.72
2019-03-04T03:28:54.365Z,847.73
2019-03-04T03:29:54.229Z,847.71
2019-03-04T03:30:54.108Z,847.65
2019-03-04T03:31:53.971Z,847.63
2019-03-04T03:32:53.839Z,847.60
2019-03-04T03:33:53.714Z,847.63
2019-03-04T03:34:53.572Z,847.63
2019-03-04T03:35:53.441Z,847.60
2019-03-04T03:36:53.309Z,847.59
2019-03-04T03:37:53.184Z,847.59
2019-03-04T03:38:53.047Z,847.50
2019-03-04T03:39:52.915Z,847.51
2019-03-04T03:40:52.782Z,847.50
2019-03-04T03:41:52.654Z,847.53
2019-03-04T03:42:52.521Z,847.52
2019-03-04T03:43:52.393Z,847.51
2019-03-04T03:44:52.260Z,847.45
2019-03-04T03:45:52.126Z,847.36
2019-03-04T03:46:51.996Z,847.33
2019-03-04T03:47:51.866Z,847.32
2019-03-04T03:48:51.732Z,847.34
2019-03-04T03:49:51.606Z,847.35
2019-03-04T03:50:51.474Z,847.39
2019-03-04T03:51:51.338Z,847.39
2019-03-04T03:52:51.210Z,847.37
2019-03-04T03:53:51.078Z,847.39
2019-03-04T03:54:50.947Z,847.37
2019-03-04T03:55:50.817Z,847.30
2019-03-04T03:56:50.688Z,847.24
2019-03-04T03:57:50.554Z,847.27
2019-03-04T03:58:50.424Z,847.27
2019-03-04T03:59:50.294Z,847.22
2019-03-04T04:00:50.160Z,847.17
2019-03-04T04:01:50.106Z,847.14
2019-03-04T04:02:49.896Z,847.13
2019-03-04T04:03:49.769Z,847.13
2019-03-04T04:04:49.634Z,847.12
2019-03-04T04:05:49.501Z,847.15
2019-03-04T04:06:49.374Z,847.09
2019-03-04T04:07:49.240Z,847.04
2019-03-04T04:08:49.109Z,847.00
2019-03-04T04:09:48.979Z,846.99
2019-03-04T04:10:48.858Z,846.93
2019-03-04T04:11:48.717Z,846.93
2019-03-04T04:12:48.585Z,846.87
2019-03-04T04:13:48.455Z,846.88
2019-03-04T04:14:48.324Z,846.87
2019-03-04T04:15:48.194Z,846.86
2019-03-04T04:16:48.062Z,846.82
2019-03-04T04:17:47.929Z,846.79
2019-03-04T04:18:47.804Z,846.83
2019-03-04T04:19:47.707Z,846.83
2019-03-04T04:20:47.539Z,846.79
2019-03-04T04:21:47.407Z,846.74
2019-03-04T04:22:47.289Z,846.70
2019-03-04T04:23:47.146Z,846.70
2019-03-04T04:24:47.020Z,846.72
2019-03-04T04:25:46.886Z,846.75
2019-03-04T04:26:46.757Z,846.76
2019-03-04T04:27:46.633Z,846.74
2019-03-04T04:28:46.495Z,846.67
2019-03-04T04:29:46.362Z,846.71
2019-03-04T04:30:46.229Z,846.72
2019-03-04T04:31:46.100Z,846.72
2019-03-04T04:32:45.970Z,846.76
2019-03-04T04:33:45.837Z,846.70
2019-03-04T04:34:45.708Z,846.73
2019-03-04T04:35:45.577Z,846.75
2019-03-04T04:36:45.446Z,846.67
2019-03-04T04:37:45.317Z,846.63
2019-03-04T04:38:45.186Z,846.58
2019-03-04T04:39:45.055Z,846.51
2019-03-04T04:40:44.925Z,846.47
2019-03-04T04:41:44.792Z,846.47
2019-03-04T04:42:44.663Z,846.48
2019-03-04T04:43:44.532Z,846.46
2019-03-04T04:44:44.400Z,846.46
2019-03-04T04:45:44.276Z,846.43
2019-03-04T04:46:44.138Z,846.46
2019-03-04T04:47:44.012Z,846.46
2019-03-04T04:48:43.878Z,846.46
2019-03-04T04:49:43.747Z,846.40
2019-03-04T04:50:43.618Z,846.46
2019-03-04T04:51:43.495Z,846.45
2019-03-04T04:52:43.355Z,846.48
2019-03-04T04:53:43.223Z,846.53
2019-03-04T04:54:43.093Z,846.59
2019-03-04T04:55:42.964Z,846.59
2019-03-04T04:56:42.832Z,846.51
2019-03-04T04:57:42.709Z,846.47
2019-03-04T04:58:42.572Z,846.38
2019-03-04T04:59:42.446Z,846.38
2019-03-04T05:00:42.348Z,846.43
2019-03-04T05:01:42.180Z,846.47
2019-03-04T05:02:42.053Z,846.42
2019-03-04T05:03:41.924Z,846.38
2019-03-04T05:04:41.790Z,846.34
2019-03-04T05:05:41.662Z,846.34
2019-03-04T05:06:41.529Z,846.32
2019-03-04T05:07:41.398Z,846.32
2019-03-04T05:08:41.267Z,846.30
2019-03-04T05:09:41.135Z,846.32
2019-03-04T05:10:41.005Z,846.33
2019-03-04T05:11:40.876Z,846.36
2019-03-04T05:12:40.743Z,846.29
2019-03-04T05:13:40.614Z,846.34
2019-03-04T05:14:40.483Z,846.29
2019-03-04T05:15:40.351Z,846.21
2019-03-04T05:16:40.221Z,846.24
2019-03-04T05:17:40.090Z,846.15
2019-03-04T05:18:39.959Z,846.11
2019-03-04T05:19:39.830Z,846.05
2019-03-04T05:20:39.697Z,846.02
2019-03-04T05:21:39.566Z,845.97
2019-03-04T05:22:39.438Z,845.99
2019-03-04T05:23:39.307Z,845.94
2019-03-04T05:24:39.174Z,845.94
2019-03-04T05:25:39.045Z,845.91
2019-03-04T05:26:38.917Z,845.93
2019-03-04T05:27:38.784Z,845.92
2019-03-04T05:28:38.652Z,845.93
2019-03-04T05:29:38.521Z,845.91
2019-03-04T05:30:38.392Z,845.90
2019-03-04T05:31:38.261Z,845.91
2019-03-04T05:32:38.129Z,845.87
2019-03-04T05:33:38.000Z,845.91
2019-03-04T05:34:37.871Z,845.91
2019-03-04T05:35:37.735Z,845.93
2019-03-04T05:36:37.606Z,845.90
2019-03-04T05:37:37.473Z,845.93
2019-03-04T05:38:37.344Z,845.94
2019-03-04T05:39:37.214Z,845.88
2019-03-04T05:40:37.186Z,845.84
2019-03-04T05:41:36.963Z,845.80
2019-03-04T05:42:36.821Z,845.73
2019-03-04T05:43:36.690Z,845.72
2019-03-04T05:44:36.562Z,845.69
2019-03-04T05:45:36.431Z,845.72
2019-03-04T05:46:36.299Z,845.72
2019-03-04T05:47:36.169Z,845.70
2019-03-04T05:48:36.040Z,845.73
2019-03-04T05:49:35.909Z,845.68
2019-03-04T05:50:35.778Z,845.63
2019-03-04T05:51:35.646Z,845.62
2019-03-04T05:52:35.520Z,845.62
2019-03-04T05:53:35.384Z,845.60
2019-03-04T05:54:35.257Z,845.59
2019-03-04T05:55:35.122Z,845.60
2019-03-04T05:56:34.996Z,845.65
2019-03-04T05:57:34.863Z,845.68
2019-03-04T05:58:34.732Z,845.65
2019-03-04T05:59:34.601Z,845.68
2019-03-04T06:00:34.471Z,845.68
2019-03-04T06:01:34.343Z,845.66
2019-03-04T06:02:34.209Z,845.60
2019-03-04T06:03:34.079Z,845.58
2019-03-04T06:04:33.958Z,845.56
2019-03-04T06:05:33.817Z,845.58
2019-03-04T06:06:33.687Z,845.55
2019-03-04T06:07:33.556Z,845.53
2019-03-04T06:08:33.428Z,845.58
2019-03-04T06:09:33.294Z,845.54
2019-03-04T06:10:33.166Z,845.52
2019-03-04T06:11:33.034Z,845.53
2019-03-04T06:12:32.902Z,845.48
2019-03-04T06:13:32.770Z,845.40
2019-03-04T06:14:32.639Z,845.37
2019-03-04T06:15:32.510Z,845.31
2019-03-04T06:16:32.378Z,845.25
2019-03-04T06:17:33.178Z,845.21
2019-03-04T06:18:32.121Z,845.19
2019-03-04T06:19:31.992Z,845.13
2019-03-04T06:20:31.856Z,845.12
2019-03-04T06:21:31.724Z,845.13
2019-03-04T06:22:31.594Z,845.20
2019-03-04T06:23:31.462Z,845.24
2019-03-04T06:24:31.334Z,845.17
2019-03-04T06:25:31.214Z,845.14
2019-03-04T06:26:31.071Z,845.04
2019-03-04T06:27:30.939Z,845.01
2019-03-04T06:28:30.808Z,844.98
2019-03-04T06:29:30.685Z,844.98
2019-03-04T06:30:30.547Z,844.98
2019-03-04T06:31:30.417Z,844.96
2019-03-04T06:32:30.287Z,844.90
2019-03-04T06:33:30.155Z,844.90
2019-03-04T06:34:30.024Z,844.89
2019-03-04T06:35:29.895Z,844.88
2019-03-04T06:36:29.766Z,844.86
2019-03-04T06:37:29.632Z,844.89
2019-03-04T06:38:29.500Z,844.90
2019-03-04T06:39:29.377Z,844.93
2019-03-04T06:40:29.241Z,844.88
2019-03-04T06:41:29.115Z,844.81
2019-03-04T06:42:28.979Z,844.69
2019-03-04T06:43:28.851Z,844.65
2019-03-04T06:44:28.716Z,844.62
2019-03-04T06:45:28.587Z,844.69
2019-03-04T06:46:29.175Z,844.72
2019-03-04T06:47:28.324Z,844.75
2019-03-04T06:48:28.199Z,844.76
2019-03-04T06:49:28.068Z,844.70
2019-03-04T06:50:27.942Z,844.65
2019-03-04T06:51:27.834Z,844.59
2019-03-04T06:52:27.674Z,844.64
2019-03-04T06:53:27.544Z,844.59
2019-03-04T06:54:27.437Z,844.64
2019-03-04T06:55:27.285Z,844.64
2019-03-04T06:56:27.152Z,844.62
2019-03-04T06:57:28.628Z,844.55
2019-03-04T06:58:26.892Z,844.49
2019-03-04T06:59:26.760Z,844.50
2019-03-04T07:00:26.630Z,844.44
2019-03-04T07:01:26.534Z,844.47
2019-03-04T07:02:26.372Z,844.46
2019-03-04T07:03:26.245Z,844.48
2019-03-04T07:04:26.113Z,844.53
2019-03-04T07:05:25.980Z,844.53
2019-03-04T07:06:25.853Z,844.50
2019-03-04T07:07:25.722Z,844.49
2019-03-04T07:08:25.593Z,844.47
2019-03-04T07:09:25.462Z,844.44
2019-03-04T07:10:25.332Z,844.41
2019-03-04T07:11:25.203Z,844.41
2019-03-04T07:12:25.072Z,844.43
2019-03-04T07:13:24.940Z,844.42
2019-03-04T07:14:24.813Z,844.49
2019-03-04T07:15:25.185Z,844.52
2019-03-04T07:16:24.558Z,844.50
2019-03-04T07:17:24.423Z,844.48
2019-03-04T07:18:24.293Z,844.44
2019-03-04T07:19:24.163Z,844.42
2019-03-04T07:20:24.048Z,844.38
2019-03-04T07:21:23.906Z,844.45
2019-03-04T07:22:23.774Z,844.45
2019-03-04T07:23:23.646Z,844.32
2019-03-04T07:24:23.517Z,844.28
2019-03-04T07:25:23.388Z,844.29
2019-03-04T07:26:23.257Z,844.29
2019-03-04T07:27:23.130Z,844.26
2019-03-04T07:28:23.001Z,844.23
2019-03-04T07:29:22.872Z,844.21
2019-03-04T07:30:22.743Z,844.27
2019-03-04T07:31:22.616Z,844.28
2019-03-04T07:32:22.485Z,844.35
2019-03-04T07:33:22.357Z,844.36
2019-03-04T07:34:22.230Z,844.38
2019-03-04T07:35:22.101Z,844.37
2019-03-04T07:36:21.971Z,844.36
2019-03-04T07:37:21.844Z,844.33
2019-03-04T07:38:21.715Z,844.30
2019-03-04T07:39:21.586Z,844.30
2019-03-04T07:40:21.457Z,844.34
2019-03-04T07:41:21.327Z,844.43
2019-03-04T07:42:21.203Z,844.41
2019-03-04T07:43:21.070Z,844.45
2019-03-04T07:44:21.198Z,844.46
2019-03-04T07:45:20.813Z,844.47
2019-03-04T07:46:20.686Z,844.50
2019-03-04T07:47:20.606Z,844.51
2019-03-04T07:48:20.429Z,844.54
2019-03-04T07:49:20.303Z,844.52
2019-03-04T07:50:20.174Z,844.50
2019-03-04T07:51:20.047Z,844.48
2019-03-04T07:52:19.921Z,844.51
2019-03-04T07:53:19.795Z,844.60
2019-03-04T07:54:19.664Z,844.56
2019-03-04T07:55:19.536Z,844.55
2019-03-04T07:56:19.415Z,844.53
2019-03-04T07:57:19.283Z,844.57
2019-03-04T07:58:19.152Z,844.51
2019-03-04T07:59:19.030Z,844.52
2019-03-04T08:00:18.899Z,844.56
2019-03-04T08:01:18.773Z,844.59
2019-03-04T08:02:18.649Z,844.56
2019-03-04T08:03:18.521Z,844.53
2019-03-04T08:04:18.401Z,844.52
2019-03-04T08:05:18.271Z,844.50
2019-03-04T08:06:18.143Z,844.47
2019-03-04T08:07:18.014Z,844.42
2019-03-04T08:08:17.888Z,844.43
2019-03-04T08:09:17.764Z,844.38
2019-03-04T08:10:17.635Z,844.35
2019-03-04T08:11:17.516Z,844.44
2019-03-04T08:12:17.384Z,844.47
2019-03-04T08:13:17.260Z,844.35
2019-03-04T08:14:17.134Z,844.29
2019-03-04T08:15:17.012Z,844.27
2019-03-04T08:16:16.885Z,844.32
2019-03-04T08:17:16.755Z,844.30
2019-03-04T08:18:16.634Z,844.31
2019-03-04T08:19:16.507Z,844.44
2019-03-04T08:20:16.382Z,844.49
2019-03-04T08:21:16.256Z,844.41
2019-03-04T08:22:16.130Z,844.40
2019-03-04T08:23:16.006Z,844.44
2019-03-04T08:24:15.884Z,844.46
2019-03-04T08:25:15.757Z,844.42
2019-03-04T08:26:15.634Z,844.39
2019-03-04T08:27:15.509Z,844.40
2019-03-04T08:28:15.383Z,844.39
2019-03-04T08:29:15.260Z,844.39
2019-03-04T08:30:15.133Z,844.45
2019-03-04T08:31:15.011Z,844.49
2019-03-04T08:32:14.890Z,844.48
2019-03-04T08:33:14.762Z,844.43
2019-03-04T08:34:14.638Z,844.37
2019-03-04T08:35:14.518Z,844.46
2019-03-04T08:36:14.391Z,844.57
2019-03-04T08:37:14.274Z,844.62
2019-03-04T08:38:14.142Z,844.60
2019-03-04T08:39:14.018Z,844.69
2019-03-04T08:40:13.896Z,844.76
2019-03-04T08:41:13.770Z,844.67
2019-03-04T08:42:13.646Z,844.66
2019-03-04T08:43:13.524Z,844.71
2019-03-04T08:44:13.404Z,844.73
2019-03-04T08:45:13.277Z,844.68
2019-03-04T08:46:13.159Z,844.68
2019-03-04T08:47:13.031Z,844.59
2019-03-04T08:48:12.911Z,844.58
2019-03-04T08:49:12.787Z,844.65
2019-03-04T08:50:12.662Z,844.63
2019-03-04T08:51:12.536Z,844.57
2019-03-04T08:52:12.415Z,844.58
2019-03-04T08:53:12.291Z,844.55
2019-03-04T08:54:12.168Z,844.59
2019-03-04T08:55:12.046Z,844.60
2019-03-04T08:56:12.449Z,844.57
2019-03-04T08:57:11.797Z,844.53
2019-03-04T08:58:11.674Z,844.51
2019-03-04T08:59:11.550Z,844.43
2019-03-04T09:00:11.429Z,844.49
2019-03-04T09:01:11.302Z,844.47
2019-03-04T09:02:11.182Z,844.36
2019-03-04T09:03:11.061Z,844.24
2019-03-04T09:04:10.938Z,844.25
2019-03-04T09:05:10.815Z,844.26
2019-03-04T09:06:10.693Z,844.25
2019-03-04T09:07:10.569Z,844.25
2019-03-04T09:08:10.447Z,844.20
2019-03-04T09:09:10.322Z,844.27
2019-03-04T09:10:10.201Z,844.35
2019-03-04T09:11:10.080Z,844.42
2019-03-04T09:12:09.957Z,844.28
2019-03-04T09:13:09.834Z,844.17
2019-03-04T09:14:09.713Z,844.24
2019-03-04T09:15:09.591Z,844.23
2019-03-04T09:16:09.469Z,844.30
2019-03-04T09:17:10.741Z,844.35
2019-03-04T09:18:09.225Z,844.29
2019-03-04T09:19:09.102Z,844.41
2019-03-04T09:20:08.993Z,844.39
2019-03-04T09:21:08.856Z,844.28
2019-03-04T09:22:08.736Z,844.29
2019-03-04T09:23:08.616Z,844.28
2019-03-04T09:24:08.490Z,844.37
2019-03-04T09:25:08.368Z,844.35
2019-03-04T09:26:08.247Z,844.28
2019-03-04T09:27:08.125Z,844.24
2019-03-04T09:28:08.006Z,844.22
2019-03-04T09:29:07.895Z,844.21
2019-03-04T09:30:07.754Z,844.20
2019-03-04T09:31:07.635Z,844.16
2019-03-04T09:32:07.514Z,844.08
2019-03-04T09:33:07.389Z,844.03
2019-03-04T09:34:07.266Z,844.04
2019-03-04T09:35:07.144Z,844.03
2019-03-04T09:36:07.024Z,843.95
2019-03-04T09:37:06.901Z,843.97
2019-03-04T09:38:06.830Z,844.04
2019-03-04T09:39:06.656Z,844.05
2019-03-04T09:40:06.533Z,844.12
2019-03-04T09:41:07.247Z,844.08
2019-03-04T09:42:06.289Z,844.05
2019-03-04T09:43:06.173Z,844.05
2019-03-04T09:44:06.049Z,843.98
2019-03-04T09:45:05.926Z,843.93
2019-03-04T09:46:05.804Z,843.86
2019-03-04T09:47:05.683Z,843.84
2019-03-04T09:48:05.559Z,843.86
2019-03-04T09:49:05.437Z,843.86
2019-03-04T09:50:05.314Z,843.85
2019-03-04T09:51:05.254Z,843.80
2019-03-04T09:52:05.072Z,843.77
2019-03-04T09:53:04.957Z,843.82
2019-03-04T09:54:04.829Z,843.80
2019-03-04T09:55:04.707Z,843.77
2019-03-04T09:56:04.585Z,843.74
2019-03-04T09:57:04.460Z,843.68
2019-03-04T09:58:04.347Z,843.68
2019-03-04T09:59:04.218Z,843.78
2019-03-04T10:00:04.098Z,843.86
2019-03-04T10:01:03.974Z,843.82
2019-03-04T10:02:03.852Z,843.78
2019-03-04T10:03:03.732Z,843.72
2019-03-04T10:04:03.612Z,843.73
2019-03-04T10:05:03.488Z,843.60
2019-03-04T10:06:03.363Z,843.62
2019-03-04T10:07:03.242Z,843.59
2019-03-04T10:08:03.122Z,843.60
2019-03-04T10:09:02.999Z,843.68
2019-03-04T10:10:03.248Z,843.70
2019-03-04T10:11:02.761Z,843.72
2019-03-04T10:12:02.633Z,843.64
2019-03-04T10:13:02.510Z,843.62
2019-03-04T10:14:02.390Z,843.61
2019-03-04T10:15:08.462Z,843.75
2019-03-04T10:16:02.147Z,843.71
2019-03-04T10:17:02.022Z,843.61
2019-03-04T10:18:01.912Z,843.77
2019-03-04T10:19:01.778Z,843.76
2019-03-04T10:20:01.652Z,843.69
2019-03-04T10:21:01.531Z,843.73
2019-03-04T10:22:01.406Z,843.88
2019-03-04T10:23:01.286Z,843.83
2019-03-04T10:24:01.158Z,843.86
2019-03-04T10:25:01.036Z,843.83
2019-03-04T10:26:00.910Z,843.83
2019-03-04T10:27:00.791Z,843.81
2019-03-04T10:28:00.676Z,843.80
2019-03-04T10:29:02.201Z,843.86
2019-03-04T10:30:00.415Z,843.71
2019-03-04T10:31:00.290Z,843.74
2019-03-04T10:32:00.163Z,843.64
2019-03-04T10:33:00.098Z,843.73
2019-03-04T10:33:59.913Z,843.74
2019-03-04T10:34:59.793Z,843.68
2019-03-04T10:35:59.665Z,843.69
2019-03-04T10:36:59.538Z,843.65
2019-03-04T10:37:59.414Z,843.63
2019-03-04T10:38:59.291Z,843.67
2019-03-04T10:39:59.167Z,843.75
2019-03-04T10:40:59.038Z,843.65
2019-03-04T10:41:58.915Z,843.72
2019-03-04T10:42:58.791Z,843.72
2019-03-04T10:43:58.666Z,843.63
2019-03-04T10:44:58.539Z,843.60
2019-03-04T10:45:58.417Z,843.59
2019-03-04T10:46:58.293Z,843.73
2019-03-04T10:47:58.170Z,843.70
2019-03-04T10:48:58.039Z,843.58
2019-03-04T10:49:57.916Z,843.51
2019-03-04T10:50:57.792Z,843.51
2019-03-04T10:51:57.665Z,843.56
2019-03-04T10:52:57.541Z,843.50
2019-03-04T10:53:57.415Z,843.57
2019-03-04T10:54:57.290Z,843.50
2019-03-04T10:55:57.165Z,843.28
2019-03-04T10:56:57.043Z,843.25
2019-03-04T10:57:56.918Z,843.48
2019-03-04T10:58:56.793Z,843.34
2019-03-04T10:59:56.666Z,843.55
2019-03-04T11:00:56.541Z,843.58
2019-03-04T11:01:56.414Z,843.53
2019-03-04T11:02:56.294Z,843.55
2019-03-04T11:03:56.169Z,843.34
2019-03-04T11:04:56.090Z,843.28
2019-03-04T11:05:55.917Z,843.40
2019-03-04T11:06:55.869Z,843.37
2019-03-04T11:07:55.668Z,843.37
2019-03-04T11:08:55.541Z,843.42
2019-03-04T11:09:55.420Z,843.48
2019-03-04T11:10:55.296Z,843.34
2019-03-04T11:11:55.172Z,843.49
2019-03-04T11:12:55.046Z,843.45
2019-03-04T11:13:54.922Z,843.38
2019-03-04T11:14:54.795Z,843.26
2019-03-04T11:15:54.673Z,843.33
2019-03-04T11:16:54.548Z,843.22
2019-03-04T11:17:54.717Z,843.26
2019-03-04T11:18:54.297Z,843.19
2019-03-04T11:19:54.175Z,843.34
2019-03-04T11:20:54.050Z,843.34
2019-03-04T11:21:53.925Z,843.19
2019-03-04T11:22:53.807Z,843.10
2019-03-04T11:23:53.680Z,843.13
2019-03-04T11:24:53.551Z,843.17
2019-03-04T11:25:53.432Z,843.12
2019-03-04T11:26:53.302Z,843.13
2019-03-04T11:27:53.179Z,842.94
2019-03-04T11:28:53.052Z,842.91
2019-03-04T11:29:52.930Z,842.83
2019-03-04T11:30:52.806Z,842.89
2019-03-04T11:31:52.681Z,842.81
2019-03-04T11:32:52.560Z,842.67
2019-03-04T11:33:52.434Z,842.87
2019-03-04T11:34:52.320Z,842.84
2019-03-04T11:35:52.183Z,842.92
2019-03-04T11:36:52.063Z,842.91
2019-03-04T11:37:51.934Z,842.91
2019-03-04T11:38:51.861Z,842.93
2019-03-04T11:39:51.687Z,842.71
2019-03-04T11:40:51.562Z,842.82
2019-03-04T11:41:51.440Z,842.71
2019-03-04T11:42:51.317Z,842.65
2019-03-04T11:43:51.193Z,842.80
2019-03-04T11:44:51.070Z,842.64
2019-03-04T11:45:50.944Z,842.62
2019-03-04T11:46:50.822Z,842.54
2019-03-04T11:47:50.696Z,842.61
2019-03-04T11:48:50.574Z,842.60
2019-03-04T11:49:50.447Z,842.60
2019-03-04T11:50:50.325Z,842.53
2019-03-04T11:51:50.198Z,842.40
2019-03-04T11:52:50.073Z,842.46
2019-03-04T11:53:49.950Z,842.49
2019-03-04T11:54:49.831Z,842.42
2019-03-04T11:55:49.704Z,842.51
2019-03-04T11:56:49.577Z,842.32
2019-03-04T11:57:49.454Z,842.31
2019-03-04T11:58:49.329Z,842.32
2019-03-04T11:59:49.204Z,842.45
2019-03-04T12:00:49.082Z,842.35
2019-03-04T12:01:48.953Z,842.37
2019-03-04T12:02:48.830Z,842.25
2019-03-04T12:03:48.714Z,842.26
2019-03-04T12:04:48.582Z,842.23
2019-03-04T12:05:48.458Z,842.27
2019-03-04T12:06:48.334Z,842.32
2019-03-04T12:07:48.215Z,842.23
2019-03-04T12:08:48.085Z,842.27
2019-03-04T12:09:47.958Z,842.25
2019-03-04T12:10:47.834Z,842.15
2019-03-04T12:11:47.709Z,842.09
2019-03-04T12:12:47.585Z,842.01
2019-03-04T12:13:47.460Z,842.07
2019-03-04T12:14:47.338Z,841.95
2019-03-04T12:15:47.211Z,842.16
2019-03-04T12:16:47.085Z,842.13
2019-03-04T12:17:46.961Z,842.12
2019-03-04T12:18:46.837Z,842.07
2019-03-04T12:19:46.711Z,842.06
2019-03-04T12:20:46.583Z,842.02
2019-03-04T12:21:46.459Z,841.99
2019-03-04T12:22:46.336Z,842.03
2019-03-04T12:23:46.212Z,842.01
2019-03-04T12:24:46.082Z,842.02
2019-03-04T12:25:45.962Z,842.02
2019-03-04T12:26:45.834Z,842.02